createdAt,value
2023-04-15T00:01:25.327Z,99.90
2023-04-15T00:07:18.813Z,99.90
2023-04-15T00:13:12.293Z,99.90
2023-04-15T00:19:07.189Z,99.90
2023-04-15T00:25:00.782Z,1.00
2023-04-15T00:30:54.266Z,1.00
2023-04-15T00:36:49.211Z,1.00
2023-04-15T00:42:42.613Z,1.00
2023-04-15T00:48:36.748Z,1.00
2023-04-15T00:54:31.696Z,1.00
2023-04-15T01:00:25.713Z,1.00
2023-04-15T01:06:19.841Z,1.00
2023-04-15T01:12:16.843Z,1.00
2023-04-15T01:18:10.826Z,1.00
2023-04-15T01:24:10.137Z,1.00
2023-04-15T01:30:05.351Z,1.00
2023-04-15T01:35:59.131Z,1.00
2023-04-15T01:41:52.638Z,1.00
2023-04-15T01:47:47.664Z,1.00
2023-04-15T01:53:41.458Z,1.00
2023-04-15T01:59:35.503Z,1.00
2023-04-15T02:05:30.451Z,1.00
2023-04-15T02:11:24.318Z,1.00
2023-04-15T02:17:19.548Z,1.00
2023-04-15T02:23:14.831Z,1.00
2023-04-15T02:29:10.754Z,1.00
2023-04-15T02:35:05.978Z,1.00
2023-04-15T02:41:00.860Z,1.00
2023-04-15T02:46:55.323Z,1.00
2023-04-15T02:52:48.891Z,1.00
2023-04-15T02:58:45.126Z,1.00
2023-04-15T03:04:38.630Z,1.00
2023-04-15T03:10:31.776Z,1.00
2023-04-15T03:16:26.456Z,1.00
2023-04-15T03:22:20.139Z,1.00
2023-04-15T03:28:14.523Z,1.00
2023-04-15T03:34:09.500Z,1.00
2023-04-15T03:40:03.942Z,1.00
2023-04-15T03:45:56.983Z,1.00
2023-04-15T03:51:52.035Z,1.00
2023-04-15T03:57:45.071Z,1.00
2023-04-15T04:03:38.752Z,1.00
2023-04-15T04:09:33.692Z,1.00
2023-04-15T04:15:27.086Z,1.00
2023-04-15T04:21:21.456Z,1.00
2023-04-15T04:27:16.485Z,1.00
2023-04-15T04:33:10.131Z,1.00
2023-04-15T04:39:03.808Z,1.00
2023-04-15T04:44:58.686Z,1.00
2023-04-15T04:50:52.022Z,1.00
2023-04-15T04:56:45.508Z,1.00
2023-04-15T05:02:42.150Z,1.00
2023-04-15T05:08:35.553Z,1.00
2023-04-15T05:14:29.048Z,1.00
2023-04-15T05:20:23.508Z,1.00
2023-04-15T05:26:17.023Z,1.00
2023-04-15T05:32:10.775Z,1.00
2023-04-15T05:38:06.086Z,1.00
2023-04-15T05:44:00.624Z,1.00
2023-04-15T05:49:53.948Z,1.00
2023-04-15T05:55:48.908Z,1.00
2023-04-15T06:01:42.662Z,1.00
2023-04-15T06:07:36.502Z,1.00
2023-04-15T06:13:31.397Z,1.00
2023-04-15T06:19:25.029Z,1.00
2023-04-15T06:25:18.845Z,1.00
2023-04-15T06:31:13.776Z,1.00
2023-04-15T06:37:07.528Z,1.00
2023-04-15T06:43:00.636Z,1.00
2023-04-15T06:48:55.503Z,1.00
2023-04-15T06:54:48.563Z,1.00
2023-04-15T07:00:42.433Z,1.00
2023-04-15T07:06:37.083Z,1.00
2023-04-15T07:12:30.537Z,1.00
2023-04-15T07:18:23.600Z,1.00
2023-04-15T07:24:20.113Z,1.00
2023-04-15T07:30:13.858Z,1.00
2023-04-15T07:36:07.285Z,1.00
2023-04-15T07:42:02.556Z,1.00
2023-04-15T07:47:56.456Z,1.00
2023-04-15T07:53:50.364Z,1.00
2023-04-15T07:59:44.953Z,1.00
2023-04-15T08:05:38.398Z,1.00
2023-04-15T08:11:31.495Z,1.00
2023-04-15T08:17:26.235Z,1.00
2023-04-15T08:23:19.860Z,1.00
2023-04-15T08:29:12.902Z,1.00
2023-04-15T08:35:08.113Z,1.00
2023-04-15T08:41:05.240Z,1.00
2023-04-15T08:47:02.583Z,1.00
2023-04-15T08:53:00.168Z,1.00
2023-04-15T08:58:54.855Z,1.00
2023-04-15T09:04:48.143Z,1.00
2023-04-15T09:10:43.036Z,1.00
2023-04-15T09:17:04.262Z,1.00
2023-04-15T09:22:57.969Z,1.00
2023-04-15T09:28:52.935Z,1.00
2023-04-15T09:34:46.495Z,1.00
2023-04-15T09:40:42.296Z,1.00
2023-04-15T09:46:47.530Z,1.00
2023-04-15T09:52:44.567Z,1.00
2023-04-15T09:58:39.183Z,1.00
2023-04-15T10:04:37.107Z,1.00
2023-04-15T10:10:30.897Z,1.00
2023-04-15T10:16:27.991Z,1.00
2023-04-15T10:22:23.903Z,1.00
2023-04-15T10:28:18.409Z,99.90
2023-04-15T10:34:12.357Z,99.90
2023-04-15T10:40:28.874Z,99.90
2023-04-15T10:46:37.093Z,99.90
2023-04-15T10:52:30.663Z,99.90
2023-04-15T10:58:27.352Z,99.90
2023-04-15T11:04:53.459Z,99.90
2023-04-15T11:10:56.292Z,99.90
2023-04-15T11:16:50.966Z,99.90
2023-04-15T11:22:49.470Z,99.90
2023-04-15T11:28:45.325Z,99.90
2023-04-15T11:34:40.333Z,99.90
2023-04-15T11:40:35.393Z,99.90
2023-04-15T11:46:32.695Z,99.90
2023-04-15T11:52:27.611Z,99.90
2023-04-15T11:58:22.873Z,99.90
2023-04-15T12:04:20.811Z,99.90
2023-04-15T12:10:19.018Z,99.90
2023-04-15T12:16:12.318Z,99.90
2023-04-15T12:22:07.902Z,99.90
2023-04-15T12:28:02.356Z,99.90
2023-04-15T12:33:56.682Z,99.90
2023-04-15T12:39:51.424Z,99.90
2023-04-15T12:45:46.713Z,99.90
2023-04-15T12:51:39.759Z,99.90
2023-04-15T12:57:33.402Z,99.90
2023-04-15T13:03:28.492Z,99.90
2023-04-15T13:09:22.160Z,99.90
2023-04-15T13:15:15.688Z,99.90
2023-04-15T13:21:11.337Z,99.90
2023-04-15T13:27:05.503Z,99.90
2023-04-15T13:32:59.098Z,99.90
2023-04-15T13:38:54.065Z,99.90
2023-04-15T13:44:47.609Z,99.90
2023-04-15T13:50:45.584Z,99.90
2023-04-15T13:56:40.652Z,99.90
2023-04-15T14:02:34.480Z,99.90
2023-04-15T14:08:27.935Z,99.90
2023-04-15T14:14:22.824Z,99.90
2023-04-15T14:20:17.201Z,99.90
2023-04-15T14:26:11.048Z,99.90
2023-04-15T14:32:12.386Z,99.90
2023-04-15T14:38:06.086Z,97.90
2023-04-15T14:43:59.110Z,83.30
2023-04-15T14:49:54.094Z,89.70
2023-04-15T14:55:47.209Z,80.40
2023-04-15T15:01:40.848Z,81.10
2023-04-15T15:07:36.460Z,88.50
2023-04-15T15:13:29.983Z,95.40
2023-04-15T15:19:24.094Z,98.10
2023-04-15T15:25:18.967Z,98.10
2023-04-15T15:31:12.479Z,99.40
2023-04-15T15:37:05.628Z,99.90
2023-04-15T15:43:00.541Z,99.90
2023-04-15T15:48:54.029Z,99.90
2023-04-15T15:54:47.253Z,99.90
2023-04-15T16:00:42.668Z,99.90
2023-04-15T16:06:36.274Z,99.90
2023-04-15T16:12:29.852Z,99.90
2023-04-15T16:18:24.774Z,99.90
2023-04-15T16:24:18.324Z,99.90
2023-04-15T16:30:12.834Z,99.90
2023-04-15T16:36:08.300Z,99.90
2023-04-15T16:42:02.612Z,99.90
2023-04-15T16:47:56.765Z,99.90
2023-04-15T16:53:51.868Z,99.90
2023-04-15T16:59:45.359Z,99.90
2023-04-15T17:05:40.131Z,99.90
2023-04-15T17:11:35.744Z,99.90
2023-04-15T17:17:29.266Z,99.90
2023-04-15T17:23:22.894Z,99.90
2023-04-15T17:29:17.900Z,99.90
2023-04-15T17:35:11.914Z,99.90
2023-04-15T17:41:07.774Z,99.90
2023-04-15T17:47:02.712Z,99.90
2023-04-15T17:52:56.332Z,99.90
2023-04-15T17:58:49.838Z,99.90
2023-04-15T18:04:44.948Z,99.90
2023-04-15T18:10:39.741Z,99.90
2023-04-15T18:19:05.992Z,99.90
2023-04-15T18:25:04.651Z,99.90
2023-04-15T18:30:58.192Z,99.90
2023-04-15T18:36:53.131Z,99.90
2023-04-15T18:42:46.266Z,99.90
2023-04-15T18:48:39.836Z,99.90
2023-04-15T18:54:34.879Z,99.90
2023-04-15T19:00:28.445Z,99.90
2023-04-15T19:06:22.644Z,99.90
2023-04-15T19:12:17.144Z,99.90
2023-04-15T19:18:10.962Z,99.90
2023-04-15T19:24:04.201Z,99.90
2023-04-15T19:29:59.872Z,99.90
2023-04-15T19:35:53.384Z,99.90
2023-04-15T19:41:47.932Z,99.90
2023-04-15T19:47:43.004Z,99.90
2023-04-15T19:53:36.150Z,99.90
2023-04-15T19:59:29.703Z,99.90
2023-04-15T20:05:24.711Z,99.90
2023-04-15T20:11:18.512Z,99.90
2023-04-15T20:17:12.017Z,99.90
2023-04-15T20:23:06.920Z,99.90
2023-04-15T20:29:00.974Z,99.90
2023-04-15T20:34:54.453Z,99.90
2023-04-15T20:40:49.045Z,99.90
2023-04-15T20:46:42.137Z,99.90
2023-04-15T20:52:35.158Z,99.90
2023-04-15T20:58:30.020Z,99.90
2023-04-15T21:04:24.794Z,99.90
2023-04-15T21:10:17.915Z,99.90
2023-04-15T21:16:12.844Z,99.90
2023-04-15T21:22:06.442Z,99.90
2023-04-15T21:27:59.949Z,99.90
2023-04-15T21:33:54.782Z,99.90
2023-04-15T21:39:48.459Z,99.90
2023-04-15T21:46:20.764Z,99.90
2023-04-15T21:52:01.233Z,99.90
2023-04-15T21:57:54.590Z,99.90
2023-04-15T22:03:47.855Z,99.90
2023-04-15T22:09:42.828Z,99.90
2023-04-15T22:15:36.113Z,99.90
2023-04-15T22:21:29.653Z,99.90
2023-04-15T22:27:24.123Z,99.90
2023-04-15T22:33:17.637Z,99.90
2023-04-15T22:39:11.231Z,99.90
2023-04-15T22:45:07.008Z,99.90
2023-04-15T22:51:00.533Z,99.90
2023-04-15T22:56:53.815Z,99.90
2023-04-15T23:02:48.972Z,99.90
2023-04-15T23:08:42.834Z,99.90
2023-04-15T23:14:35.967Z,99.90
2023-04-15T23:20:30.831Z,99.90
2023-04-15T23:26:24.368Z,99.90
2023-04-15T23:32:17.857Z,99.90
2023-04-15T23:38:12.310Z,99.90
2023-04-15T23:44:06.256Z,99.90
2023-04-15T23:49:59.287Z,99.90
2023-04-15T23:55:54.147Z,99.90
